sensor_id;sensor_type;location;lat;lon;timestamp;temperature;humidity
2897;DHT22;1458;49.728;9.228;2023-07-24T00:01:06;18.40;78.40
2897;DHT22;1458;49.728;9.228;2023-07-24T00:03:33;18.30;78.70
2897;DHT22;1458;49.728;9.228;2023-07-24T00:06:02;18.40;78.10
2897;DHT22;1458;49.728;9.228;2023-07-24T00:08:29;18.40;78.30
2897;DHT22;1458;49.728;9.228;2023-07-24T00:10:57;18.50;77.60
2897;DHT22;1458;49.728;9.228;2023-07-24T00:13:24;18.30;78.70
2897;DHT22;1458;49.728;9.228;2023-07-24T00:15:51;18.10;78.70
2897;DHT22;1458;49.728;9.228;2023-07-24T00:18:20;18.00;78.70
2897;DHT22;1458;49.728;9.228;2023-07-24T00:20:47;18.00;79.40
2897;DHT22;1458;49.728;9.228;2023-07-24T00:23:15;17.90;80.00
2897;DHT22;1458;49.728;9.228;2023-07-24T00:25:42;17.90;80.60
2897;DHT22;1458;49.728;9.228;2023-07-24T00:28:10;17.70;81.60
2897;DHT22;1458;49.728;9.228;2023-07-24T00:30:38;17.70;82.30
2897;DHT22;1458;49.728;9.228;2023-07-24T00:33:06;17.70;82.40
2897;DHT22;1458;49.728;9.228;2023-07-24T00:35:34;17.60;82.30
2897;DHT22;1458;49.728;9.228;2023-07-24T00:38:02;17.60;81.90
2897;DHT22;1458;49.728;9.228;2023-07-24T00:40:29;17.50;81.60
2897;DHT22;1458;49.728;9.228;2023-07-24T00:42:56;17.60;82.60
2897;DHT22;1458;49.728;9.228;2023-07-24T00:45:24;17.60;82.30
2897;DHT22;1458;49.728;9.228;2023-07-24T00:47:52;17.50;83.20
2897;DHT22;1458;49.728;9.228;2023-07-24T00:50:20;17.40;83.70
2897;DHT22;1458;49.728;9.228;2023-07-24T00:52:49;17.40;84.60
2897;DHT22;1458;49.728;9.228;2023-07-24T00:55:17;17.40;84.10
2897;DHT22;1458;49.728;9.228;2023-07-24T00:57:44;17.20;84.60
2897;DHT22;1458;49.728;9.228;2023-07-24T01:00:12;17.10;85.40
2897;DHT22;1458;49.728;9.228;2023-07-24T01:02:40;17.00;86.20
2897;DHT22;1458;49.728;9.228;2023-07-24T01:05:11;17.00;88.30
2897;DHT22;1458;49.728;9.228;2023-07-24T01:07:40;17.00;88.60
2897;DHT22;1458;49.728;9.228;2023-07-24T01:10:09;17.00;89.40
2897;DHT22;1458;49.728;9.228;2023-07-24T01:12:44;17.10;89.50
2897;DHT22;1458;49.728;9.228;2023-07-24T01:15:19;17.20;89.50
2897;DHT22;1458;49.728;9.228;2023-07-24T01:17:59;17.20;88.30
2897;DHT22;1458;49.728;9.228;2023-07-24T01:20:29;17.10;88.60
2897;DHT22;1458;49.728;9.228;2023-07-24T01:23:13;17.00;88.80
2897;DHT22;1458;49.728;9.228;2023-07-24T01:25:53;17.00;89.40
2897;DHT22;1458;49.728;9.228;2023-07-24T01:28:21;17.00;89.20
2897;DHT22;1458;49.728;9.228;2023-07-24T01:30:48;17.00;88.60
2897;DHT22;1458;49.728;9.228;2023-07-24T01:33:17;16.80;89.30
2897;DHT22;1458;49.728;9.228;2023-07-24T01:35:48;16.70;89.80
2897;DHT22;1458;49.728;9.228;2023-07-24T01:38:17;16.70;90.10
2897;DHT22;1458;49.728;9.228;2023-07-24T01:40:45;16.70;90.60
2897;DHT22;1458;49.728;9.228;2023-07-24T01:43:14;16.70;91.20
2897;DHT22;1458;49.728;9.228;2023-07-24T01:45:42;16.80;90.90
2897;DHT22;1458;49.728;9.228;2023-07-24T01:48:09;16.70;90.80
2897;DHT22;1458;49.728;9.228;2023-07-24T01:50:37;16.80;91.10
2897;DHT22;1458;49.728;9.228;2023-07-24T01:53:04;16.80;91.10
2897;DHT22;1458;49.728;9.228;2023-07-24T01:55:32;16.90;91.10
2897;DHT22;1458;49.728;9.228;2023-07-24T01:57:59;16.80;91.10
2897;DHT22;1458;49.728;9.228;2023-07-24T02:00:28;16.80;91.20
2897;DHT22;1458;49.728;9.228;2023-07-24T02:02:58;16.80;91.30
2897;DHT22;1458;49.728;9.228;2023-07-24T02:05:26;16.70;91.50
2897;DHT22;1458;49.728;9.228;2023-07-24T02:07:53;16.70;92.10
2897;DHT22;1458;49.728;9.228;2023-07-24T02:10:21;16.70;92.60
2897;DHT22;1458;49.728;9.228;2023-07-24T02:12:49;16.60;92.90
2897;DHT22;1458;49.728;9.228;2023-07-24T02:15:16;16.60;93.30
2897;DHT22;1458;49.728;9.228;2023-07-24T02:17:45;16.70;93.50
2897;DHT22;1458;49.728;9.228;2023-07-24T02:20:13;16.70;93.40
2897;DHT22;1458;49.728;9.228;2023-07-24T02:22:40;16.80;93.30
2897;DHT22;1458;49.728;9.228;2023-07-24T02:25:08;16.70;93.60
2897;DHT22;1458;49.728;9.228;2023-07-24T02:27:36;16.70;93.60
2897;DHT22;1458;49.728;9.228;2023-07-24T02:30:04;16.70;93.90
2897;DHT22;1458;49.728;9.228;2023-07-24T02:32:32;16.80;93.80
2897;DHT22;1458;49.728;9.228;2023-07-24T02:35:00;16.80;94.20
2897;DHT22;1458;49.728;9.228;2023-07-24T02:37:28;16.60;94.50
2897;DHT22;1458;49.728;9.228;2023-07-24T02:39:55;16.60;94.90
2897;DHT22;1458;49.728;9.228;2023-07-24T02:42:23;16.50;95.80
2897;DHT22;1458;49.728;9.228;2023-07-24T02:44:50;16.50;98.10
2897;DHT22;1458;49.728;9.228;2023-07-24T02:47:18;16.60;99.90
2897;DHT22;1458;49.728;9.228;2023-07-24T02:49:46;16.80;99.90
2897;DHT22;1458;49.728;9.228;2023-07-24T02:52:15;16.80;99.90
2897;DHT22;1458;49.728;9.228;2023-07-24T02:54:42;16.80;99.90
2897;DHT22;1458;49.728;9.228;2023-07-24T02:57:10;16.70;99.90
2897;DHT22;1458;49.728;9.228;2023-07-24T02:59:37;16.60;99.90
2897;DHT22;1458;49.728;9.228;2023-07-24T03:02:04;16.50;99.90
2897;DHT22;1458;49.728;9.228;2023-07-24T03:04:32;16.30;99.90
2897;DHT22;1458;49.728;9.228;2023-07-24T03:07:00;16.40;99.90
2897;DHT22;1458;49.728;9.228;2023-07-24T03:09:29;16.30;99.90
2897;DHT22;1458;49.728;9.228;2023-07-24T03:11:56;16.20;99.90
2897;DHT22;1458;49.728;9.228;2023-07-24T03:14:23;16.10;99.90
2897;DHT22;1458;49.728;9.228;2023-07-24T03:16:51;16.00;99.90
2897;DHT22;1458;49.728;9.228;2023-07-24T03:19:19;16.00;99.90
2897;DHT22;1458;49.728;9.228;2023-07-24T03:21:46;15.80;99.90
2897;DHT22;1458;49.728;9.228;2023-07-24T03:24:14;15.70;99.90
2897;DHT22;1458;49.728;9.228;2023-07-24T03:26:42;15.70;99.90
2897;DHT22;1458;49.728;9.228;2023-07-24T03:29:10;15.70;99.90
2897;DHT22;1458;49.728;9.228;2023-07-24T03:31:37;15.70;99.90
2897;DHT22;1458;49.728;9.228;2023-07-24T03:34:05;15.70;99.90
2897;DHT22;1458;49.728;9.228;2023-07-24T03:36:32;15.80;99.90
2897;DHT22;1458;49.728;9.228;2023-07-24T03:39:01;15.70;99.90
2897;DHT22;1458;49.728;9.228;2023-07-24T03:41:29;15.90;99.90
2897;DHT22;1458;49.728;9.228;2023-07-24T03:43:58;16.10;99.90
2897;DHT22;1458;49.728;9.228;2023-07-24T03:46:25;16.30;99.90
2897;DHT22;1458;49.728;9.228;2023-07-24T03:48:53;16.40;99.90
2897;DHT22;1458;49.728;9.228;2023-07-24T03:51:20;16.40;99.90
2897;DHT22;1458;49.728;9.228;2023-07-24T03:53:47;16.50;99.90
2897;DHT22;1458;49.728;9.228;2023-07-24T03:56:15;16.40;99.90
2897;DHT22;1458;49.728;9.228;2023-07-24T03:58:42;16.40;99.90
2897;DHT22;1458;49.728;9.228;2023-07-24T04:01:11;16.50;99.90
2897;DHT22;1458;49.728;9.228;2023-07-24T04:03:39;16.50;99.90
2897;DHT22;1458;49.728;9.228;2023-07-24T04:06:06;16.60;99.90
2897;DHT22;1458;49.728;9.228;2023-07-24T04:08:33;16.90;99.90
2897;DHT22;1458;49.728;9.228;2023-07-24T04:11:01;17.00;99.90
2897;DHT22;1458;49.728;9.228;2023-07-24T04:13:30;17.00;99.90
2897;DHT22;1458;49.728;9.228;2023-07-24T04:15:57;17.10;99.90
2897;DHT22;1458;49.728;9.228;2023-07-24T04:18:26;17.20;99.90
2897;DHT22;1458;49.728;9.228;2023-07-24T04:20:58;17.30;99.90
2897;DHT22;1458;49.728;9.228;2023-07-24T04:23:27;17.40;99.90
2897;DHT22;1458;49.728;9.228;2023-07-24T04:25:54;17.40;99.90
2897;DHT22;1458;49.728;9.228;2023-07-24T04:28:21;17.30;99.90
2897;DHT22;1458;49.728;9.228;2023-07-24T04:30:49;17.30;99.90
2897;DHT22;1458;49.728;9.228;2023-07-24T04:33:16;17.30;99.90
2897;DHT22;1458;49.728;9.228;2023-07-24T04:35:47;17.40;99.90
2897;DHT22;1458;49.728;9.228;2023-07-24T04:38:15;17.40;99.90
2897;DHT22;1458;49.728;9.228;2023-07-24T04:40:43;17.40;99.90
2897;DHT22;1458;49.728;9.228;2023-07-24T04:43:12;17.40;99.90
2897;DHT22;1458;49.728;9.228;2023-07-24T04:45:39;17.40;99.90
2897;DHT22;1458;49.728;9.228;2023-07-24T04:48:06;17.40;99.90
2897;DHT22;1458;49.728;9.228;2023-07-24T04:50:34;17.40;99.90
2897;DHT22;1458;49.728;9.228;2023-07-24T04:53:02;17.60;99.90
2897;DHT22;1458;49.728;9.228;2023-07-24T04:55:30;17.70;99.90
2897;DHT22;1458;49.728;9.228;2023-07-24T04:57:57;17.70;99.90
2897;DHT22;1458;49.728;9.228;2023-07-24T05:00:25;17.80;99.90
2897;DHT22;1458;49.728;9.228;2023-07-24T05:02:52;17.80;99.90
2897;DHT22;1458;49.728;9.228;2023-07-24T05:05:20;17.90;99.90
2897;DHT22;1458;49.728;9.228;2023-07-24T05:07:47;17.80;99.90
2897;DHT22;1458;49.728;9.228;2023-07-24T05:10:16;17.80;99.90
2897;DHT22;1458;49.728;9.228;2023-07-24T05:12:43;17.90;99.80
2897;DHT22;1458;49.728;9.228;2023-07-24T05:15:11;17.90;99.60
2897;DHT22;1458;49.728;9.228;2023-07-24T05:17:38;18.10;99.10
2897;DHT22;1458;49.728;9.228;2023-07-24T05:20:07;18.30;97.80
2897;DHT22;1458;49.728;9.228;2023-07-24T05:22:35;18.30;97.50
2897;DHT22;1458;49.728;9.228;2023-07-24T05:25:03;18.40;97.00
2897;DHT22;1458;49.728;9.228;2023-07-24T05:27:32;18.40;96.80
2897;DHT22;1458;49.728;9.228;2023-07-24T05:29:59;18.50;97.10
2897;DHT22;1458;49.728;9.228;2023-07-24T05:32:26;18.60;94.80
2897;DHT22;1458;49.728;9.228;2023-07-24T05:34:54;18.70;94.80
2897;DHT22;1458;49.728;9.228;2023-07-24T05:37:21;18.60;93.80
2897;DHT22;1458;49.728;9.228;2023-07-24T05:39:49;18.80;93.90
2897;DHT22;1458;49.728;9.228;2023-07-24T05:42:17;19.10;92.90
2897;DHT22;1458;49.728;9.228;2023-07-24T05:44:45;19.10;92.40
2897;DHT22;1458;49.728;9.228;2023-07-24T05:47:13;19.10;91.60
2897;DHT22;1458;49.728;9.228;2023-07-24T05:49:40;19.20;90.90
2897;DHT22;1458;49.728;9.228;2023-07-24T05:52:07;19.20;91.60
2897;DHT22;1458;49.728;9.228;2023-07-24T05:54:35;19.30;90.50
2897;DHT22;1458;49.728;9.228;2023-07-24T05:57:03;19.10;90.20
2897;DHT22;1458;49.728;9.228;2023-07-24T05:59:30;19.20;89.90
2897;DHT22;1458;49.728;9.228;2023-07-24T06:01:59;19.20;88.90
2897;DHT22;1458;49.728;9.228;2023-07-24T06:04:26;19.40;89.90
2897;DHT22;1458;49.728;9.228;2023-07-24T06:06:54;19.50;90.00
2897;DHT22;1458;49.728;9.228;2023-07-24T06:09:21;19.60;88.00
2897;DHT22;1458;49.728;9.228;2023-07-24T06:11:48;19.80;87.20
2897;DHT22;1458;49.728;9.228;2023-07-24T06:14:16;19.80;85.80
2897;DHT22;1458;49.728;9.228;2023-07-24T06:16:43;19.80;85.70
2897;DHT22;1458;49.728;9.228;2023-07-24T06:19:12;19.80;86.00
2897;DHT22;1458;49.728;9.228;2023-07-24T06:21:39;19.70;85.20
2897;DHT22;1458;49.728;9.228;2023-07-24T06:24:07;19.70;86.00
2897;DHT22;1458;49.728;9.228;2023-07-24T06:26:37;19.70;85.80
2897;DHT22;1458;49.728;9.228;2023-07-24T06:29:05;19.80;85.20
2897;DHT22;1458;49.728;9.228;2023-07-24T06:31:32;19.80;84.20
2897;DHT22;1458;49.728;9.228;2023-07-24T06:34:00;19.70;84.70
2897;DHT22;1458;49.728;9.228;2023-07-24T06:36:28;19.70;85.70
2897;DHT22;1458;49.728;9.228;2023-07-24T06:38:56;19.70;84.40
2897;DHT22;1458;49.728;9.228;2023-07-24T06:41:23;19.60;83.70
2897;DHT22;1458;49.728;9.228;2023-07-24T06:43:51;19.50;84.40
2897;DHT22;1458;49.728;9.228;2023-07-24T06:46:19;19.60;84.30
2897;DHT22;1458;49.728;9.228;2023-07-24T06:48:46;19.80;83.10
2897;DHT22;1458;49.728;9.228;2023-07-24T06:51:13;19.90;82.80
2897;DHT22;1458;49.728;9.228;2023-07-24T06:53:42;20.20;81.00
2897;DHT22;1458;49.728;9.228;2023-07-24T06:56:09;20.30;80.00
2897;DHT22;1458;49.728;9.228;2023-07-24T06:58:37;20.40;80.20
2897;DHT22;1458;49.728;9.228;2023-07-24T07:01:05;20.60;79.20
2897;DHT22;1458;49.728;9.228;2023-07-24T07:03:33;20.50;80.10
2897;DHT22;1458;49.728;9.228;2023-07-24T07:06:01;20.70;79.60
2897;DHT22;1458;49.728;9.228;2023-07-24T07:08:30;21.20;79.30
2897;DHT22;1458;49.728;9.228;2023-07-24T07:10:59;21.50;76.90
2897;DHT22;1458;49.728;9.228;2023-07-24T07:13:28;21.60;73.30
2897;DHT22;1458;49.728;9.228;2023-07-24T07:15:55;22.00;74.90
2897;DHT22;1458;49.728;9.228;2023-07-24T07:18:23;22.80;71.80
2897;DHT22;1458;49.728;9.228;2023-07-24T07:20:52;23.20;67.80
2897;DHT22;1458;49.728;9.228;2023-07-24T07:23:20;23.50;66.10
2897;DHT22;1458;49.728;9.228;2023-07-24T07:25:48;23.70;64.20
2897;DHT22;1458;49.728;9.228;2023-07-24T07:28:18;23.50;64.60
2897;DHT22;1458;49.728;9.228;2023-07-24T07:30:46;23.70;64.80
2897;DHT22;1458;49.728;9.228;2023-07-24T07:33:14;24.10;63.50
2897;DHT22;1458;49.728;9.228;2023-07-24T07:35:41;24.50;62.40
2897;DHT22;1458;49.728;9.228;2023-07-24T07:38:09;24.90;60.20
2897;DHT22;1458;49.728;9.228;2023-07-24T07:40:37;24.60;59.10
2897;DHT22;1458;49.728;9.228;2023-07-24T07:43:05;24.20;60.70
2897;DHT22;1458;49.728;9.228;2023-07-24T07:45:34;24.20;60.80
2897;DHT22;1458;49.728;9.228;2023-07-24T07:48:01;24.50;61.70
2897;DHT22;1458;49.728;9.228;2023-07-24T07:50:29;24.60;59.80
2897;DHT22;1458;49.728;9.228;2023-07-24T07:52:56;25.10;57.70
2897;DHT22;1458;49.728;9.228;2023-07-24T07:55:25;25.40;56.50
2897;DHT22;1458;49.728;9.228;2023-07-24T07:57:52;25.50;54.30
2897;DHT22;1458;49.728;9.228;2023-07-24T08:00:20;25.50;53.00
2897;DHT22;1458;49.728;9.228;2023-07-24T08:02:49;25.40;54.00
2897;DHT22;1458;49.728;9.228;2023-07-24T08:05:16;25.80;52.70
2897;DHT22;1458;49.728;9.228;2023-07-24T08:07:43;26.10;52.20
2897;DHT22;1458;49.728;9.228;2023-07-24T08:10:11;26.00;51.30
2897;DHT22;1458;49.728;9.228;2023-07-24T08:12:40;26.00;50.90
2897;DHT22;1458;49.728;9.228;2023-07-24T08:15:09;26.00;49.50
2897;DHT22;1458;49.728;9.228;2023-07-24T08:17:37;26.00;50.70
2897;DHT22;1458;49.728;9.228;2023-07-24T08:20:07;25.80;51.90
2897;DHT22;1458;49.728;9.228;2023-07-24T08:22:34;25.70;51.80
2897;DHT22;1458;49.728;9.228;2023-07-24T08:25:03;25.80;50.90
2897;DHT22;1458;49.728;9.228;2023-07-24T08:27:30;25.60;51.70
2897;DHT22;1458;49.728;9.228;2023-07-24T08:29:58;25.40;51.50
2897;DHT22;1458;49.728;9.228;2023-07-24T08:32:25;25.70;51.80
2897;DHT22;1458;49.728;9.228;2023-07-24T08:34:53;25.60;51.70
2897;DHT22;1458;49.728;9.228;2023-07-24T08:37:21;25.40;52.30
2897;DHT22;1458;49.728;9.228;2023-07-24T08:39:49;25.50;53.00
2897;DHT22;1458;49.728;9.228;2023-07-24T08:42:16;25.50;52.70
2897;DHT22;1458;49.728;9.228;2023-07-24T08:44:46;25.60;53.10
2897;DHT22;1458;49.728;9.228;2023-07-24T08:47:14;25.50;53.80
2897;DHT22;1458;49.728;9.228;2023-07-24T08:49:42;25.20;53.70
2897;DHT22;1458;49.728;9.228;2023-07-24T08:52:10;25.20;55.00
2897;DHT22;1458;49.728;9.228;2023-07-24T08:54:39;25.30;56.40
2897;DHT22;1458;49.728;9.228;2023-07-24T08:57:08;25.30;55.40
2897;DHT22;1458;49.728;9.228;2023-07-24T08:59:35;25.50;55.50
2897;DHT22;1458;49.728;9.228;2023-07-24T09:02:03;25.50;54.70
2897;DHT22;1458;49.728;9.228;2023-07-24T09:04:31;25.60;54.70
2897;DHT22;1458;49.728;9.228;2023-07-24T09:06:58;25.50;54.40
2897;DHT22;1458;49.728;9.228;2023-07-24T09:09:30;25.50;54.70
2897;DHT22;1458;49.728;9.228;2023-07-24T09:11:59;25.30;56.00
2897;DHT22;1458;49.728;9.228;2023-07-24T09:14:27;25.40;56.00
2897;DHT22;1458;49.728;9.228;2023-07-24T09:17:06;25.30;55.60
2897;DHT22;1458;49.728;9.228;2023-07-24T09:19:34;25.30;56.00
2897;DHT22;1458;49.728;9.228;2023-07-24T09:22:09;25.30;56.50
2897;DHT22;1458;49.728;9.228;2023-07-24T09:24:37;25.50;55.70
2897;DHT22;1458;49.728;9.228;2023-07-24T09:27:07;25.60;56.60
2897;DHT22;1458;49.728;9.228;2023-07-24T09:29:35;25.80;54.40
2897;DHT22;1458;49.728;9.228;2023-07-24T09:32:03;25.70;55.20
2897;DHT22;1458;49.728;9.228;2023-07-24T09:34:31;25.70;56.40
2897;DHT22;1458;49.728;9.228;2023-07-24T09:36:59;25.90;56.00
2897;DHT22;1458;49.728;9.228;2023-07-24T09:39:27;26.00;54.70
2897;DHT22;1458;49.728;9.228;2023-07-24T09:42:02;26.10;53.80
2897;DHT22;1458;49.728;9.228;2023-07-24T09:44:32;25.90;55.40
2897;DHT22;1458;49.728;9.228;2023-07-24T09:47:00;26.00;55.00
2897;DHT22;1458;49.728;9.228;2023-07-24T09:49:28;26.00;55.20
2897;DHT22;1458;49.728;9.228;2023-07-24T09:51:58;26.20;54.40
2897;DHT22;1458;49.728;9.228;2023-07-24T09:54:32;26.40;54.90
2897;DHT22;1458;49.728;9.228;2023-07-24T09:57:07;26.50;54.10
2897;DHT22;1458;49.728;9.228;2023-07-24T09:59:37;26.60;54.50
2897;DHT22;1458;49.728;9.228;2023-07-24T10:02:06;26.30;53.50
2897;DHT22;1458;49.728;9.228;2023-07-24T10:04:36;26.00;55.10
2897;DHT22;1458;49.728;9.228;2023-07-24T10:07:05;26.00;57.10
2897;DHT22;1458;49.728;9.228;2023-07-24T10:09:33;25.90;56.40
2897;DHT22;1458;49.728;9.228;2023-07-24T10:12:01;25.60;56.40
2897;DHT22;1458;49.728;9.228;2023-07-24T10:14:30;25.50;58.60
2897;DHT22;1458;49.728;9.228;2023-07-24T10:16:59;25.30;58.90
2897;DHT22;1458;49.728;9.228;2023-07-24T10:19:36;25.10;60.50
2897;DHT22;1458;49.728;9.228;2023-07-24T10:22:05;25.00;61.60
2897;DHT22;1458;49.728;9.228;2023-07-24T10:24:33;25.30;61.30
2897;DHT22;1458;49.728;9.228;2023-07-24T10:27:03;25.50;60.10
2897;DHT22;1458;49.728;9.228;2023-07-24T10:29:35;25.40;59.70
2897;DHT22;1458;49.728;9.228;2023-07-24T10:32:05;25.30;60.50
2897;DHT22;1458;49.728;9.228;2023-07-24T10:34:43;25.30;60.90
2897;DHT22;1458;49.728;9.228;2023-07-24T10:37:11;25.10;61.20
2897;DHT22;1458;49.728;9.228;2023-07-24T10:39:39;25.30;60.70
2897;DHT22;1458;49.728;9.228;2023-07-24T10:42:08;25.40;60.00
2897;DHT22;1458;49.728;9.228;2023-07-24T10:44:36;25.30;58.50
2897;DHT22;1458;49.728;9.228;2023-07-24T10:47:05;25.20;59.70
2897;DHT22;1458;49.728;9.228;2023-07-24T10:49:34;25.10;61.50
2897;DHT22;1458;49.728;9.228;2023-07-24T10:52:01;25.00;62.80
2897;DHT22;1458;49.728;9.228;2023-07-24T10:54:31;24.90;63.10
2897;DHT22;1458;49.728;9.228;2023-07-24T10:56:59;25.10;63.40
2897;DHT22;1458;49.728;9.228;2023-07-24T10:59:37;25.10;63.20
2897;DHT22;1458;49.728;9.228;2023-07-24T11:02:07;24.90;63.20
2897;DHT22;1458;49.728;9.228;2023-07-24T11:04:36;24.60;63.60
2897;DHT22;1458;49.728;9.228;2023-07-24T11:07:03;24.60;64.40
2897;DHT22;1458;49.728;9.228;2023-07-24T11:09:35;24.70;64.70
2897;DHT22;1458;49.728;9.228;2023-07-24T11:12:12;24.90;64.70
2897;DHT22;1458;49.728;9.228;2023-07-24T11:14:48;25.10;63.30
2897;DHT22;1458;49.728;9.228;2023-07-24T11:17:17;25.30;63.30
2897;DHT22;1458;49.728;9.228;2023-07-24T11:19:45;25.30;63.40
2897;DHT22;1458;49.728;9.228;2023-07-24T11:22:12;25.60;62.50
2897;DHT22;1458;49.728;9.228;2023-07-24T11:27:13;26.10;59.20
2897;DHT22;1458;49.728;9.228;2023-07-24T11:29:41;26.10;58.40
2897;DHT22;1458;49.728;9.228;2023-07-24T11:32:09;26.10;58.10
2897;DHT22;1458;49.728;9.228;2023-07-24T11:34:38;26.20;57.70
2897;DHT22;1458;49.728;9.228;2023-07-24T11:37:06;26.30;56.00
2897;DHT22;1458;49.728;9.228;2023-07-24T11:39:33;26.30;56.10
2897;DHT22;1458;49.728;9.228;2023-07-24T11:42:01;26.20;56.10
2897;DHT22;1458;49.728;9.228;2023-07-24T11:44:29;26.60;55.40
2897;DHT22;1458;49.728;9.228;2023-07-24T11:47:04;26.70;54.40
2897;DHT22;1458;49.728;9.228;2023-07-24T11:49:32;27.10;53.50
2897;DHT22;1458;49.728;9.228;2023-07-24T11:52:04;27.10;50.80
2897;DHT22;1458;49.728;9.228;2023-07-24T11:54:34;27.10;51.10
2897;DHT22;1458;49.728;9.228;2023-07-24T11:57:01;27.20;51.70
2897;DHT22;1458;49.728;9.228;2023-07-24T11:59:37;27.10;51.80
2897;DHT22;1458;49.728;9.228;2023-07-24T12:02:05;26.70;52.20
2897;DHT22;1458;49.728;9.228;2023-07-24T12:04:36;26.40;52.90
2897;DHT22;1458;49.728;9.228;2023-07-24T12:07:09;26.40;54.00
2897;DHT22;1458;49.728;9.228;2023-07-24T12:09:36;26.20;54.40
2897;DHT22;1458;49.728;9.228;2023-07-24T12:12:04;26.30;53.80
2897;DHT22;1458;49.728;9.228;2023-07-24T12:14:32;26.50;52.70
2897;DHT22;1458;49.728;9.228;2023-07-24T12:17:01;26.60;53.30
2897;DHT22;1458;49.728;9.228;2023-07-24T12:19:28;26.70;52.60
2897;DHT22;1458;49.728;9.228;2023-07-24T12:21:56;26.50;53.90
2897;DHT22;1458;49.728;9.228;2023-07-24T12:24:25;26.80;54.00
2897;DHT22;1458;49.728;9.228;2023-07-24T12:26:52;26.70;53.60
2897;DHT22;1458;49.728;9.228;2023-07-24T12:29:20;26.70;53.60
2897;DHT22;1458;49.728;9.228;2023-07-24T12:31:47;26.60;50.80
2897;DHT22;1458;49.728;9.228;2023-07-24T12:34:15;26.50;50.40
2897;DHT22;1458;49.728;9.228;2023-07-24T12:36:42;26.30;51.50
2897;DHT22;1458;49.728;9.228;2023-07-24T12:39:10;26.40;50.30
2897;DHT22;1458;49.728;9.228;2023-07-24T12:41:39;26.60;47.00
2897;DHT22;1458;49.728;9.228;2023-07-24T12:44:06;26.90;47.00
2897;DHT22;1458;49.728;9.228;2023-07-24T12:46:34;27.60;48.00
2897;DHT22;1458;49.728;9.228;2023-07-24T12:49:01;27.70;44.00
2897;DHT22;1458;49.728;9.228;2023-07-24T12:51:28;27.10;46.20
2897;DHT22;1458;49.728;9.228;2023-07-24T12:53:56;26.80;47.20
2897;DHT22;1458;49.728;9.228;2023-07-24T12:56:23;27.00;47.80
2897;DHT22;1458;49.728;9.228;2023-07-24T12:58:52;27.30;47.80
2897;DHT22;1458;49.728;9.228;2023-07-24T13:01:20;27.40;47.30
2897;DHT22;1458;49.728;9.228;2023-07-24T13:03:48;27.60;46.70
2897;DHT22;1458;49.728;9.228;2023-07-24T13:06:15;27.60;46.30
2897;DHT22;1458;49.728;9.228;2023-07-24T13:08:43;27.20;46.30
2897;DHT22;1458;49.728;9.228;2023-07-24T13:11:10;26.70;48.30
2897;DHT22;1458;49.728;9.228;2023-07-24T13:13:38;27.10;49.00
2897;DHT22;1458;49.728;9.228;2023-07-24T13:16:07;27.80;47.20
2897;DHT22;1458;49.728;9.228;2023-07-24T13:18:34;28.30;44.70
2897;DHT22;1458;49.728;9.228;2023-07-24T13:21:02;27.80;43.90
2897;DHT22;1458;49.728;9.228;2023-07-24T13:23:32;27.60;43.50
2897;DHT22;1458;49.728;9.228;2023-07-24T13:25:59;27.30;47.00
2897;DHT22;1458;49.728;9.228;2023-07-24T13:28:27;27.40;49.00
2897;DHT22;1458;49.728;9.228;2023-07-24T13:30:55;27.70;46.70
2897;DHT22;1458;49.728;9.228;2023-07-24T13:33:24;27.60;43.40
2897;DHT22;1458;49.728;9.228;2023-07-24T13:35:51;27.70;45.00
2897;DHT22;1458;49.728;9.228;2023-07-24T13:38:18;28.10;44.60
2897;DHT22;1458;49.728;9.228;2023-07-24T13:40:46;28.50;42.70
2897;DHT22;1458;49.728;9.228;2023-07-24T13:43:13;28.60;40.60
2897;DHT22;1458;49.728;9.228;2023-07-24T13:45:42;28.50;41.70
2897;DHT22;1458;49.728;9.228;2023-07-24T13:48:09;28.50;40.40
2897;DHT22;1458;49.728;9.228;2023-07-24T13:50:38;28.30;40.70
2897;DHT22;1458;49.728;9.228;2023-07-24T13:53:06;28.50;42.00
2897;DHT22;1458;49.728;9.228;2023-07-24T13:55:34;28.60;40.70
2897;DHT22;1458;49.728;9.228;2023-07-24T13:58:01;29.00;39.80
2897;DHT22;1458;49.728;9.228;2023-07-24T14:00:29;29.00;36.50
2897;DHT22;1458;49.728;9.228;2023-07-24T14:02:56;28.60;37.90
2897;DHT22;1458;49.728;9.228;2023-07-24T14:05:24;28.20;39.40
2897;DHT22;1458;49.728;9.228;2023-07-24T14:07:53;28.40;40.90
2897;DHT22;1458;49.728;9.228;2023-07-24T14:10:20;28.70;39.00
2897;DHT22;1458;49.728;9.228;2023-07-24T14:12:48;28.40;39.70
2897;DHT22;1458;49.728;9.228;2023-07-24T14:15:15;28.70;39.20
2897;DHT22;1458;49.728;9.228;2023-07-24T14:17:43;28.80;36.40
2897;DHT22;1458;49.728;9.228;2023-07-24T14:20:11;28.60;36.10
2897;DHT22;1458;49.728;9.228;2023-07-24T14:22:39;28.20;36.70
2897;DHT22;1458;49.728;9.228;2023-07-24T14:25:08;28.00;38.50
2897;DHT22;1458;49.728;9.228;2023-07-24T14:27:35;27.70;38.40
2897;DHT22;1458;49.728;9.228;2023-07-24T14:30:04;27.10;39.50
2897;DHT22;1458;49.728;9.228;2023-07-24T14:32:32;26.40;41.50
2897;DHT22;1458;49.728;9.228;2023-07-24T14:34:59;25.80;43.60
2897;DHT22;1458;49.728;9.228;2023-07-24T14:37:27;25.50;45.30
2897;DHT22;1458;49.728;9.228;2023-07-24T14:39:54;25.30;45.60
2897;DHT22;1458;49.728;9.228;2023-07-24T14:42:23;25.20;46.10
2897;DHT22;1458;49.728;9.228;2023-07-24T14:44:50;25.20;47.40
2897;DHT22;1458;49.728;9.228;2023-07-24T14:47:18;25.10;49.10
2897;DHT22;1458;49.728;9.228;2023-07-24T14:49:45;24.90;50.50
2897;DHT22;1458;49.728;9.228;2023-07-24T14:52:13;24.70;51.40
2897;DHT22;1458;49.728;9.228;2023-07-24T14:54:40;24.60;52.70
2897;DHT22;1458;49.728;9.228;2023-07-24T14:57:07;24.40;53.50
2897;DHT22;1458;49.728;9.228;2023-07-24T14:59:38;24.40;54.20
2897;DHT22;1458;49.728;9.228;2023-07-24T15:02:06;24.30;55.20
2897;DHT22;1458;49.728;9.228;2023-07-24T15:04:33;24.00;60.80
2897;DHT22;1458;49.728;9.228;2023-07-24T15:07:01;23.30;70.00
2897;DHT22;1458;49.728;9.228;2023-07-24T15:09:28;22.70;72.60
2897;DHT22;1458;49.728;9.228;2023-07-24T15:14:30;22.20;77.80
2897;DHT22;1458;49.728;9.228;2023-07-24T15:16:59;22.20;78.50
2897;DHT22;1458;49.728;9.228;2023-07-24T15:19:26;22.40;80.00
2897;DHT22;1458;49.728;9.228;2023-07-24T15:21:54;22.60;80.80
2897;DHT22;1458;49.728;9.228;2023-07-24T15:24:21;22.90;81.70
2897;DHT22;1458;49.728;9.228;2023-07-24T15:26:49;23.30;82.00
2897;DHT22;1458;49.728;9.228;2023-07-24T15:29:16;23.80;81.10
2897;DHT22;1458;49.728;9.228;2023-07-24T15:31:44;24.00;78.30
2897;DHT22;1458;49.728;9.228;2023-07-24T15:34:13;23.90;80.30
2897;DHT22;1458;49.728;9.228;2023-07-24T15:36:40;24.00;81.00
2897;DHT22;1458;49.728;9.228;2023-07-24T15:39:08;23.90;80.60
2897;DHT22;1458;49.728;9.228;2023-07-24T15:41:35;24.20;79.30
2897;DHT22;1458;49.728;9.228;2023-07-24T15:44:03;24.20;79.20
2897;DHT22;1458;49.728;9.228;2023-07-24T15:46:30;24.20;77.60
2897;DHT22;1458;49.728;9.228;2023-07-24T15:48:58;24.30;76.40
2897;DHT22;1458;49.728;9.228;2023-07-24T15:51:27;24.60;74.20
2897;DHT22;1458;49.728;9.228;2023-07-24T15:53:55;24.60;72.60
2897;DHT22;1458;49.728;9.228;2023-07-24T15:56:23;24.70;73.00
2897;DHT22;1458;49.728;9.228;2023-07-24T15:58:51;24.70;72.20
2897;DHT22;1458;49.728;9.228;2023-07-24T16:01:18;24.70;73.30
2897;DHT22;1458;49.728;9.228;2023-07-24T16:03:45;24.60;72.30
2897;DHT22;1458;49.728;9.228;2023-07-24T16:06:13;24.60;73.90
2897;DHT22;1458;49.728;9.228;2023-07-24T16:08:42;24.50;74.00
2897;DHT22;1458;49.728;9.228;2023-07-24T16:11:10;24.00;75.10
2897;DHT22;1458;49.728;9.228;2023-07-24T16:13:39;23.70;78.30